createdAt,value
2018-08-09T00:01:46.886Z,95398.93
2018-08-09T00:04:13.252Z,95399.13
2018-08-09T00:06:39.600Z,95399.08
2018-08-09T00:09:05.925Z,95401.65
2018-08-09T00:11:32.270Z,95405.66
2018-08-09T00:13:58.649Z,95415.05
2018-08-09T00:16:24.987Z,95415.22
2018-08-09T00:18:51.363Z,95414.39
2018-08-09T00:21:17.729Z,95421.54
2018-08-09T00:23:44.087Z,95406.02
2018-08-09T00:26:10.475Z,95408.45
2018-08-09T00:28:36.843Z,95412.98
2018-08-09T00:31:03.204Z,95403.72
2018-08-09T00:33:29.571Z,95406.07
2018-08-09T00:35:55.892Z,95415.27
2018-08-09T00:38:22.264Z,95420.79
2018-08-09T00:40:48.592Z,95418.50
2018-08-09T00:43:15.051Z,95424.28
2018-08-09T00:45:41.414Z,95423.78
2018-08-09T00:48:07.766Z,95425.95
2018-08-09T00:50:34.098Z,95425.67
2018-08-09T00:53:00.415Z,95421.30
2018-08-09T00:55:26.785Z,95423.73
2018-08-09T00:57:53.113Z,95418.67
2018-08-09T01:00:19.478Z,95422.30
2018-08-09T01:02:45.815Z,95424.97
2018-08-09T01:05:12.203Z,95423.51
2018-08-09T01:07:38.830Z,95427.96
2018-08-09T01:10:05.219Z,95422.13
2018-08-09T01:12:31.549Z,95425.65
2018-08-09T01:14:57.896Z,95433.99
2018-08-09T01:17:24.246Z,95424.69
2018-08-09T01:19:50.741Z,95427.59
2018-08-09T01:22:17.085Z,95429.42
2018-08-09T01:24:43.427Z,95422.86
2018-08-09T01:27:09.803Z,95428.13
2018-08-09T01:29:36.202Z,95429.93
2018-08-09T01:32:02.572Z,95429.93
2018-08-09T01:34:28.936Z,95426.38
2018-08-09T01:36:55.337Z,95423.86
2018-08-09T01:39:21.765Z,95422.79
2018-08-09T01:41:48.249Z,95415.89
2018-08-09T01:44:14.586Z,95418.34
2018-08-09T01:46:40.943Z,95421.38
2018-08-09T01:49:07.321Z,95421.09
2018-08-09T01:51:33.723Z,95421.13
2018-08-09T01:54:00.085Z,95417.59
2018-08-09T01:56:26.441Z,95425.50
2018-08-09T01:58:53.702Z,95419.02
2018-08-09T02:01:20.030Z,95422.59
2018-08-09T02:03:46.371Z,95422.18
2018-08-09T02:06:12.741Z,95424.34
2018-08-09T02:08:39.090Z,95430.56
2018-08-09T02:11:05.505Z,95425.00
2018-08-09T02:13:31.868Z,95424.02
2018-08-09T02:15:58.257Z,95429.25
2018-08-09T02:18:24.708Z,95428.72
2018-08-09T02:20:51.121Z,95433.82
2018-08-09T02:23:17.449Z,95438.93
2018-08-09T02:25:43.818Z,95434.65
2018-08-09T02:28:10.133Z,95432.58
2018-08-09T02:30:36.505Z,95428.37
2018-08-09T02:33:02.907Z,95434.19
2018-08-09T02:35:29.357Z,95436.03
2018-08-09T02:37:55.676Z,95435.28
2018-08-09T02:40:22.024Z,95433.22
2018-08-09T02:42:48.421Z,95431.05
2018-08-09T02:45:14.844Z,95433.04
2018-08-09T02:47:41.229Z,95440.44
2018-08-09T02:50:07.558Z,95440.39
2018-08-09T02:52:33.935Z,95437.62
2018-08-09T02:55:00.304Z,95440.33
2018-08-09T02:57:26.818Z,95435.96
2018-08-09T02:59:53.160Z,95431.36
2018-08-09T03:02:19.521Z,95427.87
2018-08-09T03:04:45.859Z,95431.86
2018-08-09T03:07:12.219Z,95426.63
2018-08-09T03:09:38.552Z,95422.62
2018-08-09T03:12:04.885Z,95428.03
2018-08-09T03:14:31.240Z,95429.20
2018-08-09T03:16:57.700Z,95434.89
2018-08-09T03:19:24.080Z,95431.22
2018-08-09T03:21:50.401Z,95437.47
2018-08-09T03:24:16.739Z,95434.89
2018-08-09T03:26:43.095Z,95441.67
2018-08-09T03:29:09.442Z,95444.55
2018-08-09T03:31:35.813Z,95452.47
2018-08-09T03:34:02.163Z,95448.21
2018-08-09T03:36:28.507Z,95450.28
2018-08-09T03:38:54.863Z,95446.09
2018-08-09T03:41:21.217Z,95447.53
2018-08-09T03:43:47.556Z,95449.97
2018-08-09T03:46:13.879Z,95453.13
2018-08-09T03:48:40.210Z,95458.18
2018-08-09T03:51:06.527Z,95457.69
2018-08-09T03:53:32.852Z,95458.52
2018-08-09T03:55:59.232Z,95460.33
2018-08-09T03:58:25.601Z,95462.23
2018-08-09T04:00:51.989Z,95463.25
2018-08-09T04:03:18.343Z,95456.29
2018-08-09T04:05:44.833Z,95461.50
2018-08-09T04:08:11.213Z,95460.22
2018-08-09T04:10:37.548Z,95463.94
2018-08-09T04:13:03.935Z,95471.79
2018-08-09T04:15:30.281Z,95470.59
2018-08-09T04:17:56.693Z,95474.83
2018-08-09T04:20:23.083Z,95474.20
2018-08-09T04:22:49.446Z,95480.78
2018-08-09T04:25:15.770Z,95480.28
2018-08-09T04:27:42.139Z,95482.77
2018-08-09T04:30:08.528Z,95484.62
2018-08-09T04:32:34.877Z,95484.75
2018-08-09T04:35:01.207Z,95487.86
2018-08-09T04:37:27.588Z,95488.66
2018-08-09T04:39:54.052Z,95485.36
2018-08-09T04:42:20.381Z,95493.61
2018-08-09T04:44:46.720Z,95484.66
2018-08-09T04:47:13.111Z,95487.70
2018-08-09T04:49:39.498Z,95486.09
2018-08-09T04:52:05.997Z,95485.87
2018-08-09T04:54:32.339Z,95492.83
2018-08-09T04:56:58.735Z,95489.27
2018-08-09T04:59:25.221Z,95497.42
2018-08-09T05:01:51.584Z,95492.35
2018-08-09T05:04:17.955Z,95502.99
2018-08-09T05:06:44.297Z,95508.25
2018-08-09T05:09:10.674Z,95509.08
2018-08-09T05:11:37.044Z,95504.62
2018-08-09T05:14:03.479Z,95505.53
2018-08-09T05:16:29.844Z,95504.23
2018-08-09T05:18:56.173Z,95503.70
2018-08-09T05:21:22.504Z,95504.70
2018-08-09T05:23:48.862Z,95503.52
2018-08-09T05:26:15.232Z,95503.64
2018-08-09T05:28:41.685Z,95505.77
2018-08-09T05:31:08.130Z,95503.42
2018-08-09T05:33:34.477Z,95502.59
2018-08-09T05:36:00.866Z,95505.31
2018-08-09T05:38:27.243Z,95510.02
2018-08-09T05:40:53.587Z,95517.02
2018-08-09T05:43:19.987Z,95510.89
2018-08-09T05:45:46.391Z,95514.06
2018-08-09T05:48:12.710Z,95513.97
2018-08-09T05:50:39.150Z,95447.84
2018-08-09T05:53:05.516Z,95517.89
2018-08-09T05:55:31.868Z,95515.03
2018-08-09T05:57:58.217Z,95514.38
2018-08-09T06:00:24.613Z,95517.14
2018-08-09T06:02:51.173Z,95507.28
2018-08-09T06:05:17.590Z,95521.10
2018-08-09T06:07:43.942Z,95513.17
2018-08-09T06:10:10.331Z,95510.53
2018-08-09T06:12:36.724Z,95512.98
2018-08-09T06:15:03.058Z,95511.77
2018-08-09T06:17:29.434Z,95512.70
2018-08-09T06:19:55.762Z,95514.38
2018-08-09T06:22:22.183Z,95516.45
2018-08-09T06:24:48.571Z,95515.74
2018-08-09T06:27:14.900Z,95516.16
2018-08-09T06:29:41.301Z,95518.44
2018-08-09T06:32:07.775Z,95514.51
2018-08-09T06:34:34.272Z,95509.16
2018-08-09T06:37:00.606Z,95509.52
2018-08-09T06:39:27.005Z,95509.33
2018-08-09T06:41:53.372Z,95505.22
2018-08-09T06:44:19.874Z,95507.39
2018-08-09T06:46:46.220Z,95507.52
2018-08-09T06:49:12.628Z,95515.99
2018-08-09T06:51:39.141Z,95515.80
2018-08-09T06:54:05.502Z,95512.14
2018-08-09T06:56:31.926Z,95518.63
2018-08-09T06:58:58.326Z,95517.59
2018-08-09T07:01:24.684Z,95522.18
2018-08-09T07:03:51.091Z,95527.71
2018-08-09T07:06:17.437Z,95529.06
2018-08-09T07:08:43.864Z,95528.47
2018-08-09T07:11:10.413Z,95522.41
2018-08-09T07:13:36.809Z,95524.94
2018-08-09T07:16:03.669Z,95523.64
2018-08-09T07:18:30.063Z,95520.88
2018-08-09T07:20:56.480Z,95521.06
2018-08-09T07:23:22.847Z,95519.70
2018-08-09T07:25:49.227Z,95517.77
2018-08-09T07:28:15.616Z,95518.02
2018-08-09T07:30:41.990Z,95520.70
2018-08-09T07:33:08.401Z,95523.30
2018-08-09T07:35:34.754Z,95517.30
2018-08-09T07:38:01.161Z,95516.81
2018-08-09T07:40:27.522Z,95518.87
2018-08-09T07:42:54.016Z,95518.02
2018-08-09T07:45:20.406Z,95517.16
2018-08-09T07:47:46.896Z,95514.23
2018-08-09T07:50:13.419Z,95511.78
2018-08-09T07:52:39.822Z,95505.23
2018-08-09T07:55:06.191Z,95511.09
2018-08-09T07:57:32.626Z,95501.82
2018-08-09T07:59:58.998Z,95503.58
2018-08-09T08:02:25.378Z,95503.39
2018-08-09T08:04:51.960Z,95500.03
2018-08-09T08:07:18.356Z,95498.55
2018-08-09T08:09:44.918Z,95499.09
2018-08-09T08:12:11.402Z,95491.30
2018-08-09T08:14:37.765Z,95486.76
2018-08-09T08:17:04.111Z,95494.86
2018-08-09T08:19:30.506Z,95499.09
2018-08-09T08:21:57.027Z,95490.56
2018-08-09T08:24:23.523Z,95495.08
2018-08-09T08:26:50.057Z,95486.83
2018-08-09T08:29:16.458Z,95487.18
2018-08-09T08:31:42.828Z,95486.02
2018-08-09T08:34:10.111Z,95484.59
2018-08-09T08:36:37.357Z,95486.59
2018-08-09T08:39:03.861Z,95478.63
2018-08-09T08:41:30.364Z,95473.96
2018-08-09T08:43:56.832Z,95482.09
2018-08-09T08:46:23.287Z,95478.20
2018-08-09T08:48:49.725Z,95481.18
2018-08-09T08:51:16.150Z,95487.15
2018-08-09T08:53:42.495Z,95491.22
2018-08-09T08:56:09.029Z,95491.50
2018-08-09T08:58:35.462Z,95482.30
2018-08-09T09:01:01.869Z,95485.06
2018-08-09T09:03:28.225Z,95491.44
2018-08-09T09:05:54.599Z,95493.75
2018-08-09T09:08:20.987Z,95492.69
2018-08-09T09:10:47.522Z,95495.48
2018-08-09T09:13:13.849Z,95494.25
2018-08-09T09:15:40.225Z,95492.22
2018-08-09T09:18:06.664Z,95493.23
2018-08-09T09:20:33.049Z,95485.94
2018-08-09T09:22:59.482Z,95489.35
2018-08-09T09:25:25.852Z,95494.45
2018-08-09T09:27:52.285Z,95496.45
2018-08-09T09:30:18.644Z,95492.59
2018-08-09T09:32:45.078Z,95495.08
2018-08-09T09:35:11.548Z,95492.91
2018-08-09T09:37:37.979Z,95500.11
2018-08-09T09:40:04.371Z,95489.60
2018-08-09T09:42:30.719Z,95487.48
2018-08-09T09:44:57.137Z,95491.55
2018-08-09T09:47:23.522Z,95476.00
2018-08-09T09:49:50.174Z,95482.42
2018-08-09T09:52:16.526Z,95490.13
2018-08-09T09:54:42.932Z,95481.09
2018-08-09T09:57:09.296Z,95483.94
2018-08-09T09:59:35.720Z,95481.59
2018-08-09T10:02:02.106Z,95481.27
2018-08-09T10:04:28.499Z,95476.91
2018-08-09T10:06:55.070Z,95475.56
2018-08-09T10:09:21.430Z,95474.13
2018-08-09T10:11:47.805Z,95472.92
2018-08-09T10:14:14.212Z,95468.14
2018-08-09T10:16:40.548Z,95471.18
2018-08-09T10:19:06.976Z,95468.98
2018-08-09T10:21:33.434Z,95467.44
2018-08-09T10:23:59.778Z,95462.95
2018-08-09T10:26:26.201Z,95474.23
2018-08-09T10:28:52.547Z,95473.20
2018-08-09T10:31:18.961Z,95474.20
2018-08-09T10:33:45.393Z,95472.94
2018-08-09T10:36:11.815Z,95475.27
2018-08-09T10:38:38.246Z,95464.83
2018-08-09T10:41:04.610Z,95467.83
2018-08-09T10:43:31.019Z,95460.23
2018-08-09T10:45:57.454Z,95459.12
2018-08-09T10:48:24.197Z,95456.02
2018-08-09T10:50:50.646Z,95460.88
2018-08-09T10:53:17.042Z,95459.13
2018-08-09T10:55:43.574Z,95464.04
2018-08-09T10:58:10.300Z,95463.27
2018-08-09T11:00:36.815Z,95462.39
2018-08-09T11:03:03.305Z,95465.03
2018-08-09T11:05:29.696Z,95466.95
2018-08-09T11:07:56.332Z,95463.80
2018-08-09T11:10:22.910Z,95455.77
2018-08-09T11:12:49.671Z,95460.63
2018-08-09T11:15:16.049Z,95459.98
2018-08-09T11:17:42.413Z,95461.31
2018-08-09T11:20:08.853Z,95458.84
2018-08-09T11:22:35.484Z,95457.17
2018-08-09T11:25:01.981Z,95458.00
2018-08-09T11:27:28.376Z,95450.70
2018-08-09T11:29:54.855Z,95454.63
2018-08-09T11:32:21.890Z,95457.23
2018-08-09T11:34:49.103Z,95454.22
2018-08-09T11:37:15.886Z,95458.30
2018-08-09T11:39:42.400Z,95449.75
2018-08-09T11:42:08.890Z,95450.71
2018-08-09T11:44:35.466Z,95448.23
2018-08-09T11:47:01.911Z,95450.23
2018-08-09T11:49:28.490Z,95446.81
2018-08-09T11:51:54.870Z,95452.77
2018-08-09T11:54:21.235Z,95453.61
2018-08-09T11:56:47.689Z,95455.41
2018-08-09T11:59:14.128Z,95449.00
2018-08-09T12:01:40.700Z,95444.11
2018-08-09T12:04:07.069Z,95439.93
2018-08-09T12:06:33.501Z,95442.00
2018-08-09T12:08:59.856Z,95438.86
2018-08-09T12:11:26.252Z,95436.30
2018-08-09T12:13:52.667Z,95441.28
2018-08-09T12:16:19.131Z,95430.48
2018-08-09T12:18:45.536Z,95438.90
2018-08-09T12:21:11.958Z,95432.53
2018-08-09T12:23:38.359Z,95433.96
2018-08-09T12:26:04.748Z,95434.32
2018-08-09T12:28:31.101Z,95435.97
2018-08-09T12:30:57.506Z,95433.47
2018-08-09T12:33:23.956Z,95429.20
2018-08-09T12:35:50.375Z,95432.27
2018-08-09T12:38:16.810Z,95434.30
2018-08-09T12:40:43.638Z,95436.78
2018-08-09T12:43:10.140Z,95438.05
2018-08-09T12:45:36.584Z,95434.98
2018-08-09T12:48:02.985Z,95430.97
2018-08-09T12:50:29.337Z,95426.09
2018-08-09T12:52:55.694Z,95424.82
2018-08-09T12:55:22.067Z,95428.53
2018-08-09T12:57:48.416Z,95423.22
2018-08-09T13:00:14.833Z,95423.06
2018-08-09T13:02:41.456Z,95424.61
2018-08-09T13:05:08.637Z,95417.83
2018-08-09T13:07:34.973Z,95413.72
2018-08-09T13:10:01.441Z,95402.08
2018-08-09T13:12:27.791Z,95414.45
2018-08-09T13:14:54.264Z,95414.35
2018-08-09T13:17:20.631Z,95410.33
2018-08-09T13:19:47.034Z,95407.57
2018-08-09T13:22:13.431Z,95411.66
2018-08-09T13:24:39.858Z,95406.80
2018-08-09T13:27:06.219Z,95409.02
2018-08-09T13:29:32.697Z,95409.95
2018-08-09T13:31:59.043Z,95408.65
2018-08-09T13:34:25.425Z,95405.30
2018-08-09T13:36:51.817Z,95404.84
2018-08-09T13:39:18.265Z,95404.63
2018-08-09T13:41:44.642Z,95398.69
2018-08-09T13:44:10.994Z,95408.77
2018-08-09T13:46:37.397Z,95406.23
2018-08-09T13:49:04.067Z,95398.16
2018-08-09T13:51:30.494Z,95398.67
2018-08-09T13:53:56.856Z,95395.05
2018-08-09T13:56:23.243Z,95397.98
2018-08-09T13:58:49.621Z,95398.41
2018-08-09T14:01:16.008Z,95400.47
2018-08-09T14:03:42.488Z,95398.44
2018-08-09T14:06:08.888Z,95400.08
2018-08-09T14:08:35.705Z,95401.45
2018-08-09T14:11:02.122Z,95393.27
2018-08-09T14:13:28.472Z,95402.73
2018-08-09T14:15:54.895Z,95401.94
2018-08-09T14:18:21.252Z,95399.82
2018-08-09T14:20:47.759Z,95397.43
2018-08-09T14:23:14.203Z,95394.08
2018-08-09T14:25:40.573Z,95394.55
2018-08-09T14:28:06.980Z,95394.97
2018-08-09T14:30:33.370Z,95396.64
2018-08-09T14:32:59.786Z,95394.20
2018-08-09T14:35:26.168Z,95387.66
2018-08-09T14:37:52.585Z,95395.98
2018-08-09T14:40:18.942Z,95389.65
2018-08-09T14:42:45.314Z,95390.17
2018-08-09T14:45:11.681Z,95389.52
2018-08-09T14:47:38.095Z,95391.07
2018-08-09T14:50:04.506Z,95397.64
2018-08-09T14:52:30.874Z,95388.89
2018-08-09T14:54:57.302Z,95390.23
2018-08-09T14:57:23.666Z,95386.47
2018-08-09T14:59:50.077Z,95386.20
2018-08-09T15:02:16.576Z,95389.83
2018-08-09T15:04:42.950Z,95390.65
2018-08-09T15:07:09.466Z,95398.09
2018-08-09T15:09:36.433Z,95399.66
2018-08-09T15:12:03.159Z,95391.07
2018-08-09T15:14:29.525Z,95390.69
2018-08-09T15:16:55.880Z,95390.23
2018-08-09T15:19:22.213Z,95391.83
2018-08-09T15:21:48.689Z,95384.49
2018-08-09T15:24:15.111Z,95389.82
2018-08-09T15:26:41.729Z,95383.91
2018-08-09T15:29:08.075Z,95385.53
2018-08-09T15:31:34.489Z,95381.17
2018-08-09T15:34:00.857Z,95384.84
2018-08-09T15:36:27.250Z,95381.53
2018-08-09T15:38:53.636Z,95386.39
2018-08-09T15:41:19.983Z,95383.70
2018-08-09T15:43:46.348Z,95382.36
2018-08-09T15:46:12.774Z,95377.07
2018-08-09T15:48:39.208Z,95373.83
2018-08-09T15:51:05.540Z,95377.28
2018-08-09T15:53:31.927Z,95377.94
2018-08-09T15:55:58.333Z,95366.57
2018-08-09T15:58:24.859Z,95377.27
2018-08-09T16:00:51.245Z,95380.84
2018-08-09T16:03:17.678Z,95383.06
2018-08-09T16:05:44.172Z,95383.84
2018-08-09T16:08:11.211Z,95385.80
2018-08-09T16:10:37.602Z,95390.22
2018-08-09T16:13:04.013Z,95384.80
2018-08-09T16:15:30.411Z,95389.25
2018-08-09T16:17:56.817Z,95392.35
2018-08-09T16:20:23.167Z,95387.18
2018-08-09T16:22:49.702Z,95394.95
2018-08-09T16:25:16.414Z,95391.89
2018-08-09T16:27:42.829Z,95391.20
2018-08-09T16:30:09.254Z,95397.84
2018-08-09T16:32:35.623Z,95399.54
2018-08-09T16:35:02.002Z,95400.92
2018-08-09T16:37:28.507Z,95406.61
2018-08-09T16:39:55.126Z,95411.16
2018-08-09T16:42:21.515Z,95415.45
2018-08-09T16:44:47.840Z,95412.45
2018-08-09T16:47:14.206Z,95409.97
2018-08-09T16:49:40.534Z,95412.83
2018-08-09T16:52:06.897Z,95427.87
2018-08-09T16:54:33.317Z,95422.16
2018-08-09T16:56:59.703Z,95424.95
2018-08-09T16:59:26.198Z,95429.41
2018-08-09T17:01:52.577Z,95424.11
2018-08-09T17:04:18.945Z,95426.58
2018-08-09T17:06:45.372Z,95435.13
2018-08-09T17:09:11.739Z,95441.84
2018-08-09T17:11:38.160Z,95446.76
2018-08-09T17:14:04.515Z,95445.03
2018-08-09T17:16:30.894Z,95445.80
2018-08-09T17:18:57.445Z,95449.04
2018-08-09T17:21:23.843Z,95451.84
2018-08-09T17:23:50.254Z,95455.38
2018-08-09T17:26:16.662Z,95460.84
2018-08-09T17:28:43.003Z,95462.19
2018-08-09T17:31:09.417Z,95461.14
2018-08-09T17:33:35.763Z,95463.20
2018-08-09T17:36:02.124Z,95470.09
2018-08-09T17:38:28.579Z,95474.79
2018-08-09T17:40:55.048Z,95469.19
2018-08-09T17:43:21.469Z,95480.27
2018-08-09T17:45:47.842Z,95475.08
2018-08-09T17:48:14.177Z,95477.30
2018-08-09T17:50:40.595Z,95475.42
2018-08-09T17:53:06.976Z,95475.31
2018-08-09T17:55:33.308Z,95475.39
2018-08-09T17:57:59.753Z,95466.87
2018-08-09T18:00:26.085Z,95469.97
2018-08-09T18:02:52.476Z,95470.05
2018-08-09T18:05:18.848Z,95469.03
2018-08-09T18:07:45.167Z,95482.13
2018-08-09T18:10:11.496Z,95479.97
2018-08-09T18:12:37.966Z,95478.84
2018-08-09T18:15:04.320Z,95483.08
2018-08-09T18:17:30.733Z,95483.09
2018-08-09T18:19:57.061Z,95487.78
2018-08-09T18:22:23.462Z,95489.19
2018-08-09T18:24:49.780Z,95491.08
2018-08-09T18:27:16.116Z,95489.14
2018-08-09T18:29:42.486Z,95491.77
2018-08-09T18:32:08.884Z,95495.34
2018-08-09T18:34:35.246Z,95491.13
2018-08-09T18:37:01.567Z,95494.13
2018-08-09T18:39:27.921Z,95488.39
2018-08-09T18:41:54.343Z,95496.02
2018-08-09T18:44:20.756Z,95490.42
2018-08-09T18:46:47.109Z,95493.66
2018-08-09T18:49:13.423Z,95500.34
2018-08-09T18:51:39.765Z,95496.73
2018-08-09T18:54:06.201Z,95495.83
2018-08-09T18:56:32.737Z,95498.44
2018-08-09T18:58:59.150Z,95503.20
2018-08-09T19:01:25.545Z,95500.80
2018-08-09T19:03:52.033Z,95503.17
2018-08-09T19:06:18.572Z,95503.45
2018-08-09T19:08:44.948Z,95504.83
2018-08-09T19:11:11.310Z,95501.94
2018-08-09T19:13:37.715Z,95505.53
2018-08-09T19:16:04.065Z,95506.97
2018-08-09T19:18:30.526Z,95503.13
2018-08-09T19:20:56.904Z,95502.63
2018-08-09T19:23:23.302Z,95501.94
2018-08-09T19:25:49.699Z,95506.55
2018-08-09T19:28:16.091Z,95505.91
2018-08-09T19:30:42.598Z,95506.22
2018-08-09T19:33:08.984Z,95512.83
2018-08-09T19:35:35.375Z,95494.66
2018-08-09T19:38:01.732Z,95519.73
2018-08-09T19:40:28.059Z,95516.88
2018-08-09T19:42:54.476Z,95520.97
2018-08-09T19:45:20.926Z,95520.94
2018-08-09T19:47:47.294Z,95517.25
2018-08-09T19:50:13.686Z,95520.34
2018-08-09T19:52:40.152Z,95525.58
2018-08-09T19:55:06.742Z,95527.39
2018-08-09T19:57:33.312Z,95521.07
2018-08-09T19:59:59.735Z,95518.53
2018-08-09T20:02:26.049Z,95513.13
2018-08-09T20:04:52.447Z,95512.95
2018-08-09T20:07:18.804Z,95514.00
2018-08-09T20:09:45.219Z,95512.18
2018-08-09T20:12:11.591Z,95520.70
2018-08-09T20:14:37.979Z,95522.49
2018-08-09T20:17:04.322Z,95521.98
2018-08-09T20:19:30.671Z,95517.05
2018-08-09T20:21:57.093Z,95522.86
2018-08-09T20:24:23.430Z,95523.55
2018-08-09T20:26:49.810Z,95529.73
2018-08-09T20:29:16.148Z,95520.28
2018-08-09T20:31:42.567Z,95529.27
2018-08-09T20:34:08.956Z,95522.68
2018-08-09T20:36:35.344Z,95528.52
2018-08-09T20:39:01.702Z,95523.97
2018-08-09T20:41:28.052Z,95524.89
2018-08-09T20:43:54.750Z,95517.28
2018-08-09T20:46:21.083Z,95522.78
2018-08-09T20:48:47.454Z,95524.00
2018-08-09T20:51:13.853Z,95524.66
2018-08-09T20:53:40.257Z,95519.77
2018-08-09T20:56:06.659Z,95531.09
2018-08-09T20:58:32.994Z,95528.09
2018-08-09T21:00:59.339Z,95527.27
2018-08-09T21:03:25.688Z,95523.36
2018-08-09T21:05:52.092Z,95530.30
2018-08-09T21:08:18.687Z,95530.80
2018-08-09T21:10:45.018Z,95524.09
2018-08-09T21:13:11.383Z,95531.36
2018-08-09T21:15:37.880Z,95537.30
2018-08-09T21:18:04.057Z,95545.75
2018-08-09T21:20:30.530Z,95537.98
2018-08-09T21:22:56.900Z,95542.31
2018-08-09T21:25:23.387Z,95540.28
2018-08-09T21:27:49.710Z,95543.52
2018-08-09T21:30:16.057Z,95552.11
2018-08-09T21:32:42.378Z,95555.80
2018-08-09T21:35:08.733Z,95550.52
2018-08-09T21:37:35.068Z,95556.65
2018-08-09T21:40:01.396Z,95559.55
2018-08-09T21:42:27.771Z,95558.80
2018-08-09T21:44:54.160Z,95568.36
2018-08-09T21:47:20.511Z,95565.15
2018-08-09T21:49:46.965Z,95564.22
2018-08-09T21:52:13.472Z,95569.59
2018-08-09T21:54:39.826Z,95566.34
2018-08-09T21:57:06.167Z,95566.75
2018-08-09T21:59:32.545Z,95559.26
2018-08-09T22:01:58.915Z,95558.14
2018-08-09T22:04:25.255Z,95563.52
2018-08-09T22:06:51.668Z,95565.52
2018-08-09T22:09:17.998Z,95561.77
2018-08-09T22:11:44.385Z,95556.17
2018-08-09T22:14:10.713Z,95557.44
2018-08-09T22:16:37.125Z,95562.91
2018-08-09T22:19:03.519Z,95564.98
2018-08-09T22:21:29.939Z,95563.59
2018-08-09T22:23:56.274Z,95571.06
2018-08-09T22:26:22.607Z,95565.88
2018-08-09T22:28:48.965Z,95566.30
2018-08-09T22:31:15.336Z,95568.05
2018-08-09T22:33:41.720Z,95566.83
2018-08-09T22:36:08.111Z,95566.23
2018-08-09T22:38:34.483Z,95577.16
2018-08-09T22:41:00.878Z,95582.84
2018-08-09T22:43:27.197Z,95586.20
2018-08-09T22:45:53.523Z,95585.66
2018-08-09T22:48:19.990Z,95583.41
2018-08-09T22:50:46.353Z,95584.66
2018-08-09T22:53:12.754Z,95586.45
2018-08-09T22:55:39.121Z,95587.23
2018-08-09T22:58:05.521Z,95583.22
2018-08-09T23:00:31.886Z,95585.88
2018-08-09T23:02:58.427Z,95590.66
2018-08-09T23:05:24.812Z,95587.50
2018-08-09T23:07:51.277Z,95588.85
2018-08-09T23:10:17.606Z,95597.11
2018-08-09T23:12:43.951Z,95592.12
2018-08-09T23:15:10.399Z,95596.41
2018-08-09T23:17:36.821Z,95600.65
2018-08-09T23:20:03.242Z,95610.16
2018-08-09T23:22:29.579Z,95615.41
2018-08-09T23:24:55.978Z,95615.38
2018-08-09T23:27:22.467Z,95612.77
2018-08-09T23:29:48.818Z,95617.63
2018-08-09T23:32:15.183Z,95621.48
2018-08-09T23:34:41.523Z,95618.71
2018-08-09T23:37:07.870Z,95623.78
2018-08-09T23:39:34.217Z,95622.53
2018-08-09T23:42:00.568Z,95626.60
2018-08-09T23:44:26.963Z,95622.36
2018-08-09T23:46:53.355Z,95628.61
2018-08-09T23:49:19.700Z,95623.45
2018-08-09T23:51:46.059Z,95623.87
2018-08-09T23:54:12.387Z,95622.70
2018-08-09T23:56:38.783Z,95624.28
2018-08-09T23:59:05.117Z,95626.94
